sensor_id;sensor_type;location;lat;lon;timestamp;temperature;humidity
18091;DHT22;9172;49.948;9.208;2023-02-26T00:01:43;0.30;99.90
18091;DHT22;9172;49.948;9.208;2023-02-26T00:04:11;0.30;99.90
18091;DHT22;9172;49.948;9.208;2023-02-26T00:06:40;0.20;99.90
18091;DHT22;9172;49.948;9.208;2023-02-26T00:09:11;0.30;99.90
18091;DHT22;9172;49.948;9.208;2023-02-26T00:11:40;0.40;99.90
18091;DHT22;9172;49.948;9.208;2023-02-26T00:14:12;0.40;99.90
18091;DHT22;9172;49.948;9.208;2023-02-26T00:16:41;0.30;99.90
18091;DHT22;9172;49.948;9.208;2023-02-26T00:19:12;0.20;99.90
18091;DHT22;9172;49.948;9.208;2023-02-26T00:21:42;0.00;99.90
18091;DHT22;9172;49.948;9.208;2023-02-26T00:24:11;-0.10;99.90
18091;DHT22;9172;49.948;9.208;2023-02-26T00:26:40;-0.20;99.90
18091;DHT22;9172;49.948;9.208;2023-02-26T00:29:09;-0.30;99.90
18091;DHT22;9172;49.948;9.208;2023-02-26T00:31:39;-0.30;99.90
18091;DHT22;9172;49.948;9.208;2023-02-26T00:34:11;-0.40;99.90
18091;DHT22;9172;49.948;9.208;2023-02-26T00:36:43;-0.50;99.90
18091;DHT22;9172;49.948;9.208;2023-02-26T00:39:19;-0.50;99.90
18091;DHT22;9172;49.948;9.208;2023-02-26T00:41:49;-0.40;99.90
18091;DHT22;9172;49.948;9.208;2023-02-26T00:44:18;-0.20;99.90
18091;DHT22;9172;49.948;9.208;2023-02-26T00:46:51;0.00;99.90
18091;DHT22;9172;49.948;9.208;2023-02-26T00:49:26;0.10;99.90
18091;DHT22;9172;49.948;9.208;2023-02-26T00:51:55;0.20;99.90
18091;DHT22;9172;49.948;9.208;2023-02-26T00:54:26;0.20;99.90
18091;DHT22;9172;49.948;9.208;2023-02-26T00:56:56;0.30;99.90
18091;DHT22;9172;49.948;9.208;2023-02-26T00:59:26;0.10;99.90
18091;DHT22;9172;49.948;9.208;2023-02-26T01:01:55;-0.20;99.90
18091;DHT22;9172;49.948;9.208;2023-02-26T01:04:25;-0.40;99.90
18091;DHT22;9172;49.948;9.208;2023-02-26T01:06:56;-0.50;99.90
18091;DHT22;9172;49.948;9.208;2023-02-26T01:09:26;-0.50;99.90
18091;DHT22;9172;49.948;9.208;2023-02-26T01:11:58;-0.60;99.90
18091;DHT22;9172;49.948;9.208;2023-02-26T01:14:29;-0.60;99.90
18091;DHT22;9172;49.948;9.208;2023-02-26T01:17:02;-0.70;99.90
18091;DHT22;9172;49.948;9.208;2023-02-26T01:19:33;-0.60;99.90
18091;DHT22;9172;49.948;9.208;2023-02-26T01:22:06;-0.40;99.90
18091;DHT22;9172;49.948;9.208;2023-02-26T01:24:37;-0.20;99.90
18091;DHT22;9172;49.948;9.208;2023-02-26T01:27:06;-0.10;99.90
18091;DHT22;9172;49.948;9.208;2023-02-26T01:29:35;0.00;99.90
18091;DHT22;9172;49.948;9.208;2023-02-26T01:32:07;0.00;99.90
18091;DHT22;9172;49.948;9.208;2023-02-26T01:34:40;0.00;99.90
18091;DHT22;9172;49.948;9.208;2023-02-26T01:37:18;-0.30;99.90
18091;DHT22;9172;49.948;9.208;2023-02-26T01:39:51;-0.40;99.90
18091;DHT22;9172;49.948;9.208;2023-02-26T01:42:20;-0.50;99.90
18091;DHT22;9172;49.948;9.208;2023-02-26T01:44:55;-0.40;99.90
18091;DHT22;9172;49.948;9.208;2023-02-26T01:47:27;-0.40;99.90
18091;DHT22;9172;49.948;9.208;2023-02-26T01:49:58;-0.50;99.90
18091;DHT22;9172;49.948;9.208;2023-02-26T01:55:44;-0.30;99.90
18091;DHT22;9172;49.948;9.208;2023-02-26T01:58:13;-0.20;99.90
18091;DHT22;9172;49.948;9.208;2023-02-26T02:00:44;-0.10;99.90
18091;DHT22;9172;49.948;9.208;2023-02-26T02:03:14;0.00;99.90
18091;DHT22;9172;49.948;9.208;2023-02-26T02:05:46;0.00;99.90
18091;DHT22;9172;49.948;9.208;2023-02-26T02:08:16;0.00;99.90
18091;DHT22;9172;49.948;9.208;2023-02-26T02:10:47;0.00;99.90
18091;DHT22;9172;49.948;9.208;2023-02-26T02:13:25;0.00;99.90
18091;DHT22;9172;49.948;9.208;2023-02-26T02:15:59;0.00;99.90
18091;DHT22;9172;49.948;9.208;2023-02-26T02:18:34;0.00;99.90
18091;DHT22;9172;49.948;9.208;2023-02-26T02:24:14;0.00;99.90
18091;DHT22;9172;49.948;9.208;2023-02-26T02:27:02;0.00;99.90
18091;DHT22;9172;49.948;9.208;2023-02-26T02:29:54;0.00;99.90
18091;DHT22;9172;49.948;9.208;2023-02-26T02:32:26;0.00;99.90
18091;DHT22;9172;49.948;9.208;2023-02-26T02:34:59;-0.10;99.90
18091;DHT22;9172;49.948;9.208;2023-02-26T02:37:31;-0.20;99.90
18091;DHT22;9172;49.948;9.208;2023-02-26T02:40:01;-0.30;99.90
18091;DHT22;9172;49.948;9.208;2023-02-26T02:42:33;-0.50;99.90
18091;DHT22;9172;49.948;9.208;2023-02-26T02:45:06;-0.60;99.90
18091;DHT22;9172;49.948;9.208;2023-02-26T02:47:37;-0.80;99.90
18091;DHT22;9172;49.948;9.208;2023-02-26T02:50:11;-0.70;99.90
18091;DHT22;9172;49.948;9.208;2023-02-26T02:52:41;-0.60;99.90
18091;DHT22;9172;49.948;9.208;2023-02-26T02:55:14;-0.50;99.90
18091;DHT22;9172;49.948;9.208;2023-02-26T02:57:45;-0.50;99.90
18091;DHT22;9172;49.948;9.208;2023-02-26T03:00:17;-0.80;99.90
18091;DHT22;9172;49.948;9.208;2023-02-26T03:02:51;-1.20;99.90
18091;DHT22;9172;49.948;9.208;2023-02-26T03:05:21;-1.40;99.90
18091;DHT22;9172;49.948;9.208;2023-02-26T03:07:53;-1.30;99.90
18091;DHT22;9172;49.948;9.208;2023-02-26T03:10:24;-1.40;99.90
18091;DHT22;9172;49.948;9.208;2023-02-26T03:12:52;-1.30;99.90
18091;DHT22;9172;49.948;9.208;2023-02-26T03:15:25;-1.40;99.90
18091;DHT22;9172;49.948;9.208;2023-02-26T03:17:58;-1.40;99.90
18091;DHT22;9172;49.948;9.208;2023-02-26T03:20:30;-1.30;99.90
18091;DHT22;9172;49.948;9.208;2023-02-26T03:23:04;-1.20;99.90
18091;DHT22;9172;49.948;9.208;2023-02-26T03:25:39;-1.00;99.90
18091;DHT22;9172;49.948;9.208;2023-02-26T03:28:10;-0.90;99.90
18091;DHT22;9172;49.948;9.208;2023-02-26T03:30:43;-0.70;99.90
18091;DHT22;9172;49.948;9.208;2023-02-26T03:33:14;-0.70;99.90
18091;DHT22;9172;49.948;9.208;2023-02-26T03:35:48;-0.60;99.90
18091;DHT22;9172;49.948;9.208;2023-02-26T03:38:22;-0.60;99.90
18091;DHT22;9172;49.948;9.208;2023-02-26T03:40:55;-0.60;99.90
18091;DHT22;9172;49.948;9.208;2023-02-26T03:43:27;-0.60;99.90
18091;DHT22;9172;49.948;9.208;2023-02-26T03:45:58;-0.60;99.90
18091;DHT22;9172;49.948;9.208;2023-02-26T03:48:29;-0.60;99.90
18091;DHT22;9172;49.948;9.208;2023-02-26T03:51:02;-0.60;99.90
18091;DHT22;9172;49.948;9.208;2023-02-26T03:53:33;-0.80;99.90
18091;DHT22;9172;49.948;9.208;2023-02-26T03:56:05;-0.90;99.90
18091;DHT22;9172;49.948;9.208;2023-02-26T03:58:35;-1.00;99.90
18091;DHT22;9172;49.948;9.208;2023-02-26T04:01:06;-0.90;99.90
18091;DHT22;9172;49.948;9.208;2023-02-26T04:03:39;-0.90;99.90
18091;DHT22;9172;49.948;9.208;2023-02-26T04:06:08;-0.90;99.90
18091;DHT22;9172;49.948;9.208;2023-02-26T04:08:37;-0.80;99.90
18091;DHT22;9172;49.948;9.208;2023-02-26T04:11:08;-0.80;99.90
18091;DHT22;9172;49.948;9.208;2023-02-26T04:13:38;-0.70;99.90
18091;DHT22;9172;49.948;9.208;2023-02-26T04:16:08;-0.60;99.90
18091;DHT22;9172;49.948;9.208;2023-02-26T04:18:37;-0.70;99.90
18091;DHT22;9172;49.948;9.208;2023-02-26T04:21:09;-0.70;99.90
18091;DHT22;9172;49.948;9.208;2023-02-26T04:23:37;-0.70;99.90
18091;DHT22;9172;49.948;9.208;2023-02-26T04:26:05;-0.90;99.90
18091;DHT22;9172;49.948;9.208;2023-02-26T04:28:34;-1.40;99.90
18091;DHT22;9172;49.948;9.208;2023-02-26T04:31:05;-1.60;99.90
18091;DHT22;9172;49.948;9.208;2023-02-26T04:33:35;-1.70;99.90
18091;DHT22;9172;49.948;9.208;2023-02-26T04:36:04;-1.60;99.90
18091;DHT22;9172;49.948;9.208;2023-02-26T04:38:34;-1.40;99.90
18091;DHT22;9172;49.948;9.208;2023-02-26T04:41:04;-1.30;99.90
18091;DHT22;9172;49.948;9.208;2023-02-26T04:43:34;-1.20;99.90
18091;DHT22;9172;49.948;9.208;2023-02-26T04:46:04;-1.20;99.90
18091;DHT22;9172;49.948;9.208;2023-02-26T04:48:32;-1.20;99.90
18091;DHT22;9172;49.948;9.208;2023-02-26T04:51:02;-1.10;99.90
18091;DHT22;9172;49.948;9.208;2023-02-26T04:53:31;-1.00;99.90
18091;DHT22;9172;49.948;9.208;2023-02-26T04:56:01;-1.00;99.90
18091;DHT22;9172;49.948;9.208;2023-02-26T04:58:29;-0.90;99.90
18091;DHT22;9172;49.948;9.208;2023-02-26T05:00:58;-0.90;99.90
18091;DHT22;9172;49.948;9.208;2023-02-26T05:03:26;-1.00;99.90
18091;DHT22;9172;49.948;9.208;2023-02-26T05:05:56;-0.90;99.90
18091;DHT22;9172;49.948;9.208;2023-02-26T05:08:25;-1.20;99.90
18091;DHT22;9172;49.948;9.208;2023-02-26T05:10:54;-1.50;99.90
18091;DHT22;9172;49.948;9.208;2023-02-26T05:13:23;-1.80;99.90
18091;DHT22;9172;49.948;9.208;2023-02-26T05:15:53;-2.00;99.90
18091;DHT22;9172;49.948;9.208;2023-02-26T05:18:22;-2.10;99.90
18091;DHT22;9172;49.948;9.208;2023-02-26T05:20:52;-2.10;99.90
18091;DHT22;9172;49.948;9.208;2023-02-26T05:23:22;-1.90;99.90
18091;DHT22;9172;49.948;9.208;2023-02-26T05:25:50;-1.90;99.90
18091;DHT22;9172;49.948;9.208;2023-02-26T05:28:20;-1.80;99.90
18091;DHT22;9172;49.948;9.208;2023-02-26T05:30:50;-1.70;99.90
18091;DHT22;9172;49.948;9.208;2023-02-26T05:33:19;-1.70;99.90
18091;DHT22;9172;49.948;9.208;2023-02-26T05:35:48;-1.70;99.90
18091;DHT22;9172;49.948;9.208;2023-02-26T05:38:18;-1.70;99.90
18091;DHT22;9172;49.948;9.208;2023-02-26T05:40:47;-1.60;99.90
18091;DHT22;9172;49.948;9.208;2023-02-26T05:43:17;-1.50;99.90
18091;DHT22;9172;49.948;9.208;2023-02-26T05:45:45;-1.50;99.90
18091;DHT22;9172;49.948;9.208;2023-02-26T05:48:15;-1.50;99.90
18091;DHT22;9172;49.948;9.208;2023-02-26T05:50:45;-1.50;99.90
18091;DHT22;9172;49.948;9.208;2023-02-26T05:53:14;-1.50;99.90
18091;DHT22;9172;49.948;9.208;2023-02-26T05:55:42;-1.40;99.90
18091;DHT22;9172;49.948;9.208;2023-02-26T05:58:11;-1.30;99.90
18091;DHT22;9172;49.948;9.208;2023-02-26T06:00:41;-1.40;99.90
18091;DHT22;9172;49.948;9.208;2023-02-26T06:03:10;-1.40;99.90
18091;DHT22;9172;49.948;9.208;2023-02-26T06:05:39;-1.40;99.90
18091;DHT22;9172;49.948;9.208;2023-02-26T06:08:08;-1.40;99.90
18091;DHT22;9172;49.948;9.208;2023-02-26T06:10:38;-1.40;99.90
18091;DHT22;9172;49.948;9.208;2023-02-26T06:13:08;-1.40;99.90
18091;DHT22;9172;49.948;9.208;2023-02-26T06:15:38;-1.40;99.90
18091;DHT22;9172;49.948;9.208;2023-02-26T06:18:07;-1.30;99.90
18091;DHT22;9172;49.948;9.208;2023-02-26T06:20:36;-1.30;99.90
18091;DHT22;9172;49.948;9.208;2023-02-26T06:23:04;-1.20;99.90
18091;DHT22;9172;49.948;9.208;2023-02-26T06:25:34;-1.10;99.90
18091;DHT22;9172;49.948;9.208;2023-02-26T06:28:02;-1.00;99.90
18091;DHT22;9172;49.948;9.208;2023-02-26T06:30:32;-1.00;99.90
18091;DHT22;9172;49.948;9.208;2023-02-26T06:33:00;-1.10;99.90
18091;DHT22;9172;49.948;9.208;2023-02-26T06:35:29;-1.20;99.90
18091;DHT22;9172;49.948;9.208;2023-02-26T06:37:58;-1.20;99.90
18091;DHT22;9172;49.948;9.208;2023-02-26T06:40:27;-1.20;99.90
18091;DHT22;9172;49.948;9.208;2023-02-26T06:42:57;-1.10;99.90
18091;DHT22;9172;49.948;9.208;2023-02-26T06:45:27;-1.00;99.90
18091;DHT22;9172;49.948;9.208;2023-02-26T06:47:56;-1.10;99.90
18091;DHT22;9172;49.948;9.208;2023-02-26T06:50:25;-1.00;99.90
18091;DHT22;9172;49.948;9.208;2023-02-26T06:52:54;-1.00;99.90
18091;DHT22;9172;49.948;9.208;2023-02-26T06:55:24;-1.00;99.90
18091;DHT22;9172;49.948;9.208;2023-02-26T06:57:53;-1.00;99.90
18091;DHT22;9172;49.948;9.208;2023-02-26T07:00:23;-1.00;99.90
18091;DHT22;9172;49.948;9.208;2023-02-26T07:02:52;-1.00;99.90
18091;DHT22;9172;49.948;9.208;2023-02-26T07:07:59;-1.00;99.90
18091;DHT22;9172;49.948;9.208;2023-02-26T07:10:30;-1.00;99.90
18091;DHT22;9172;49.948;9.208;2023-02-26T07:12:59;-1.00;99.90
18091;DHT22;9172;49.948;9.208;2023-02-26T07:15:28;-1.00;99.90
18091;DHT22;9172;49.948;9.208;2023-02-26T07:17:57;-0.90;99.90
18091;DHT22;9172;49.948;9.208;2023-02-26T07:20:27;-0.80;99.90
18091;DHT22;9172;49.948;9.208;2023-02-26T07:22:57;-0.80;99.90
18091;DHT22;9172;49.948;9.208;2023-02-26T07:25:25;-0.80;99.90
18091;DHT22;9172;49.948;9.208;2023-02-26T07:27:55;-0.80;99.90
18091;DHT22;9172;49.948;9.208;2023-02-26T07:30:26;-0.70;99.90
18091;DHT22;9172;49.948;9.208;2023-02-26T07:32:55;-0.70;99.90
18091;DHT22;9172;49.948;9.208;2023-02-26T07:35:24;-0.70;99.90
18091;DHT22;9172;49.948;9.208;2023-02-26T07:37:53;-0.70;99.90
18091;DHT22;9172;49.948;9.208;2023-02-26T07:40:22;-0.60;99.90
18091;DHT22;9172;49.948;9.208;2023-02-26T07:42:51;-0.60;99.90
18091;DHT22;9172;49.948;9.208;2023-02-26T07:45:23;-0.50;99.90
18091;DHT22;9172;49.948;9.208;2023-02-26T07:47:53;-0.50;99.90
18091;DHT22;9172;49.948;9.208;2023-02-26T07:50:22;-0.50;99.90
18091;DHT22;9172;49.948;9.208;2023-02-26T07:52:52;-0.40;99.90
18091;DHT22;9172;49.948;9.208;2023-02-26T07:55:22;-0.30;99.90
18091;DHT22;9172;49.948;9.208;2023-02-26T08:00:35;-0.20;99.90
18091;DHT22;9172;49.948;9.208;2023-02-26T08:03:05;-0.10;99.90
18091;DHT22;9172;49.948;9.208;2023-02-26T08:05:38;-0.10;99.90
18091;DHT22;9172;49.948;9.208;2023-02-26T08:08:07;0.00;99.90
18091;DHT22;9172;49.948;9.208;2023-02-26T08:10:36;0.00;99.90
18091;DHT22;9172;49.948;9.208;2023-02-26T08:13:10;0.10;99.90
18091;DHT22;9172;49.948;9.208;2023-02-26T08:15:41;0.10;99.90
18091;DHT22;9172;49.948;9.208;2023-02-26T08:18:10;0.10;99.90
18091;DHT22;9172;49.948;9.208;2023-02-26T08:20:39;0.20;99.90
18091;DHT22;9172;49.948;9.208;2023-02-26T08:23:08;0.20;99.90
18091;DHT22;9172;49.948;9.208;2023-02-26T08:25:37;0.20;99.90
18091;DHT22;9172;49.948;9.208;2023-02-26T08:28:06;0.30;99.90
18091;DHT22;9172;49.948;9.208;2023-02-26T08:30:35;0.20;99.90
18091;DHT22;9172;49.948;9.208;2023-02-26T08:33:04;0.30;99.90
18091;DHT22;9172;49.948;9.208;2023-02-26T08:35:33;0.30;99.90
18091;DHT22;9172;49.948;9.208;2023-02-26T08:38:02;0.30;99.90
18091;DHT22;9172;49.948;9.208;2023-02-26T08:40:31;0.30;99.90
18091;DHT22;9172;49.948;9.208;2023-02-26T08:43:01;0.40;99.90
18091;DHT22;9172;49.948;9.208;2023-02-26T08:45:30;0.40;99.90
18091;DHT22;9172;49.948;9.208;2023-02-26T08:47:59;0.40;99.90
18091;DHT22;9172;49.948;9.208;2023-02-26T08:50:28;0.40;99.90
18091;DHT22;9172;49.948;9.208;2023-02-26T08:52:57;0.50;99.90
18091;DHT22;9172;49.948;9.208;2023-02-26T08:55:26;0.50;99.90
18091;DHT22;9172;49.948;9.208;2023-02-26T08:57:55;0.60;99.90
18091;DHT22;9172;49.948;9.208;2023-02-26T09:00:24;0.50;99.90
18091;DHT22;9172;49.948;9.208;2023-02-26T09:02:53;0.60;99.90
18091;DHT22;9172;49.948;9.208;2023-02-26T09:05:22;0.70;99.90
18091;DHT22;9172;49.948;9.208;2023-02-26T09:07:51;0.70;99.90
18091;DHT22;9172;49.948;9.208;2023-02-26T09:10:20;0.80;99.90
18091;DHT22;9172;49.948;9.208;2023-02-26T09:12:48;0.80;99.90
18091;DHT22;9172;49.948;9.208;2023-02-26T09:15:17;0.90;99.90
18091;DHT22;9172;49.948;9.208;2023-02-26T09:17:46;0.80;99.90
18091;DHT22;9172;49.948;9.208;2023-02-26T09:20:16;0.80;99.90
18091;DHT22;9172;49.948;9.208;2023-02-26T09:22:44;0.90;99.90
18091;DHT22;9172;49.948;9.208;2023-02-26T09:25:14;0.80;99.90
18091;DHT22;9172;49.948;9.208;2023-02-26T09:27:43;0.90;99.90
18091;DHT22;9172;49.948;9.208;2023-02-26T09:30:13;0.90;99.90
18091;DHT22;9172;49.948;9.208;2023-02-26T09:32:43;0.90;99.90
18091;DHT22;9172;49.948;9.208;2023-02-26T09:35:12;1.00;99.90
18091;DHT22;9172;49.948;9.208;2023-02-26T09:37:42;1.00;99.90
18091;DHT22;9172;49.948;9.208;2023-02-26T09:40:18;1.00;99.90
18091;DHT22;9172;49.948;9.208;2023-02-26T09:42:52;1.00;99.90
18091;DHT22;9172;49.948;9.208;2023-02-26T09:45:25;1.10;99.90
18091;DHT22;9172;49.948;9.208;2023-02-26T09:47:55;1.10;99.90
18091;DHT22;9172;49.948;9.208;2023-02-26T09:50:29;1.20;99.90
18091;DHT22;9172;49.948;9.208;2023-02-26T09:52:59;1.20;99.90
18091;DHT22;9172;49.948;9.208;2023-02-26T09:55:30;1.20;99.90
18091;DHT22;9172;49.948;9.208;2023-02-26T09:58:02;1.20;99.90
18091;DHT22;9172;49.948;9.208;2023-02-26T10:00:35;1.20;99.90
18091;DHT22;9172;49.948;9.208;2023-02-26T10:03:18;1.20;99.90
18091;DHT22;9172;49.948;9.208;2023-02-26T10:06:02;1.20;99.90
18091;DHT22;9172;49.948;9.208;2023-02-26T10:08:33;1.20;99.90
18091;DHT22;9172;49.948;9.208;2023-02-26T10:11:05;1.20;99.90
18091;DHT22;9172;49.948;9.208;2023-02-26T10:13:38;3.00;99.90
18091;DHT22;9172;49.948;9.208;2023-02-26T10:16:11;1.30;99.90
18091;DHT22;9172;49.948;9.208;2023-02-26T10:18:42;1.30;99.90
18091;DHT22;9172;49.948;9.208;2023-02-26T10:21:13;1.30;99.90
18091;DHT22;9172;49.948;9.208;2023-02-26T10:23:45;1.30;99.90
18091;DHT22;9172;49.948;9.208;2023-02-26T10:26:18;1.40;99.90
18091;DHT22;9172;49.948;9.208;2023-02-26T10:28:53;1.40;99.90
18091;DHT22;9172;49.948;9.208;2023-02-26T10:31:26;1.40;99.90
18091;DHT22;9172;49.948;9.208;2023-02-26T10:34:02;1.50;99.90
18091;DHT22;9172;49.948;9.208;2023-02-26T10:36:36;1.50;99.90
18091;DHT22;9172;49.948;9.208;2023-02-26T10:39:10;1.50;99.90
18091;DHT22;9172;49.948;9.208;2023-02-26T10:41:39;1.60;99.90
18091;DHT22;9172;49.948;9.208;2023-02-26T10:44:12;1.60;99.90
18091;DHT22;9172;49.948;9.208;2023-02-26T10:46:44;1.70;99.90
18091;DHT22;9172;49.948;9.208;2023-02-26T10:49:32;1.70;99.90
18091;DHT22;9172;49.948;9.208;2023-02-26T10:54:46;1.80;99.90
18091;DHT22;9172;49.948;9.208;2023-02-26T10:57:20;1.80;99.90
18091;DHT22;9172;49.948;9.208;2023-02-26T10:59:48;1.90;99.90
18091;DHT22;9172;49.948;9.208;2023-02-26T11:05:16;2.10;99.90
18091;DHT22;9172;49.948;9.208;2023-02-26T11:07:48;2.20;99.90
18091;DHT22;9172;49.948;9.208;2023-02-26T11:10:21;2.20;99.90
18091;DHT22;9172;49.948;9.208;2023-02-26T11:12:49;2.20;99.90
18091;DHT22;9172;49.948;9.208;2023-02-26T11:15:20;2.20;99.90
18091;DHT22;9172;49.948;9.208;2023-02-26T11:17:53;2.20;99.90
18091;DHT22;9172;49.948;9.208;2023-02-26T11:20:29;2.20;99.90
18091;DHT22;9172;49.948;9.208;2023-02-26T11:22:59;2.20;99.90
18091;DHT22;9172;49.948;9.208;2023-02-26T11:25:31;2.20;99.90
18091;DHT22;9172;49.948;9.208;2023-02-26T11:28:02;2.30;99.90
18091;DHT22;9172;49.948;9.208;2023-02-26T11:30:35;2.30;99.90
18091;DHT22;9172;49.948;9.208;2023-02-26T11:33:13;2.40;99.90
18091;DHT22;9172;49.948;9.208;2023-02-26T11:35:40;2.60;99.90
18091;DHT22;9172;49.948;9.208;2023-02-26T11:38:13;2.70;99.90
18091;DHT22;9172;49.948;9.208;2023-02-26T11:40:42;2.90;99.90
18091;DHT22;9172;49.948;9.208;2023-02-26T11:43:14;3.10;99.90
18091;DHT22;9172;49.948;9.208;2023-02-26T11:45:47;3.20;99.90
18091;DHT22;9172;49.948;9.208;2023-02-26T11:48:19;3.30;99.90
18091;DHT22;9172;49.948;9.208;2023-02-26T11:50:51;3.40;99.90
18091;DHT22;9172;49.948;9.208;2023-02-26T11:53:24;3.40;99.90
18091;DHT22;9172;49.948;9.208;2023-02-26T11:55:58;3.40;99.90
18091;DHT22;9172;49.948;9.208;2023-02-26T11:58:31;3.20;99.90
18091;DHT22;9172;49.948;9.208;2023-02-26T12:01:02;3.20;99.90
18091;DHT22;9172;49.948;9.208;2023-02-26T12:03:33;3.10;99.90
18091;DHT22;9172;49.948;9.208;2023-02-26T12:06:05;3.20;99.90
18091;DHT22;9172;49.948;9.208;2023-02-26T12:08:37;3.20;99.90
18091;DHT22;9172;49.948;9.208;2023-02-26T12:11:26;3.00;99.90
18091;DHT22;9172;49.948;9.208;2023-02-26T12:13:57;2.90;99.90
18091;DHT22;9172;49.948;9.208;2023-02-26T12:16:30;2.90;99.90
18091;DHT22;9172;49.948;9.208;2023-02-26T12:19:03;2.90;99.90
18091;DHT22;9172;49.948;9.208;2023-02-26T12:22:02;2.90;99.90
18091;DHT22;9172;49.948;9.208;2023-02-26T12:24:47;2.80;99.90
18091;DHT22;9172;49.948;9.208;2023-02-26T12:27:20;3.00;99.90
18091;DHT22;9172;49.948;9.208;2023-02-26T12:29:57;3.10;99.90
18091;DHT22;9172;49.948;9.208;2023-02-26T12:32:47;3.20;99.90
18091;DHT22;9172;49.948;9.208;2023-02-26T12:38:19;3.30;99.90
18091;DHT22;9172;49.948;9.208;2023-02-26T12:41:12;3.50;99.90
18091;DHT22;9172;49.948;9.208;2023-02-26T12:43:45;3.60;99.90
18091;DHT22;9172;49.948;9.208;2023-02-26T12:46:34;3.70;99.90
18091;DHT22;9172;49.948;9.208;2023-02-26T12:49:18;3.70;99.90
18091;DHT22;9172;49.948;9.208;2023-02-26T12:51:56;3.70;99.90
18091;DHT22;9172;49.948;9.208;2023-02-26T12:54:43;3.60;99.90
18091;DHT22;9172;49.948;9.208;2023-02-26T12:57:24;3.60;99.90
18091;DHT22;9172;49.948;9.208;2023-02-26T13:00:17;3.60;99.90
18091;DHT22;9172;49.948;9.208;2023-02-26T13:03:14;3.50;99.90
18091;DHT22;9172;49.948;9.208;2023-02-26T13:08:55;3.30;99.90
18091;DHT22;9172;49.948;9.208;2023-02-26T13:11:29;3.30;99.90
18091;DHT22;9172;49.948;9.208;2023-02-26T13:14:04;3.30;99.90
18091;DHT22;9172;49.948;9.208;2023-02-26T13:16:40;3.30;99.90
18091;DHT22;9172;49.948;9.208;2023-02-26T13:19:17;3.30;99.90
18091;DHT22;9172;49.948;9.208;2023-02-26T13:21:44;3.30;99.90
18091;DHT22;9172;49.948;9.208;2023-02-26T13:24:17;3.30;99.90
18091;DHT22;9172;49.948;9.208;2023-02-26T13:26:47;3.10;99.90
18091;DHT22;9172;49.948;9.208;2023-02-26T13:29:20;3.10;99.90
18091;DHT22;9172;49.948;9.208;2023-02-26T13:31:52;3.00;99.90
18091;DHT22;9172;49.948;9.208;2023-02-26T13:34:24;2.90;99.90
18091;DHT22;9172;49.948;9.208;2023-02-26T13:36:54;2.80;99.90
18091;DHT22;9172;49.948;9.208;2023-02-26T13:39:31;2.70;99.90
18091;DHT22;9172;49.948;9.208;2023-02-26T13:42:05;2.80;99.90
18091;DHT22;9172;49.948;9.208;2023-02-26T13:44:38;2.80;99.90
18091;DHT22;9172;49.948;9.208;2023-02-26T13:47:23;2.80;99.90
18091;DHT22;9172;49.948;9.208;2023-02-26T13:50:00;2.80;99.90
18091;DHT22;9172;49.948;9.208;2023-02-26T13:52:30;2.90;99.90
18091;DHT22;9172;49.948;9.208;2023-02-26T13:55:02;2.80;99.90
18091;DHT22;9172;49.948;9.208;2023-02-26T13:57:41;2.80;99.90
18091;DHT22;9172;49.948;9.208;2023-02-26T14:00:24;2.70;99.90
18091;DHT22;9172;49.948;9.208;2023-02-26T14:02:54;2.70;99.90
18091;DHT22;9172;49.948;9.208;2023-02-26T14:05:35;2.70;99.90
18091;DHT22;9172;49.948;9.208;2023-02-26T14:11:01;2.80;99.90
18091;DHT22;9172;49.948;9.208;2023-02-26T14:13:35;2.80;99.90
18091;DHT22;9172;49.948;9.208;2023-02-26T14:16:12;2.70;99.90
18091;DHT22;9172;49.948;9.208;2023-02-26T14:18:51;2.70;99.90
18091;DHT22;9172;49.948;9.208;2023-02-26T14:21:47;2.50;99.90
18091;DHT22;9172;49.948;9.208;2023-02-26T14:24:18;2.50;99.90
18091;DHT22;9172;49.948;9.208;2023-02-26T14:27:03;2.50;99.90
18091;DHT22;9172;49.948;9.208;2023-02-26T14:29:35;2.60;99.90
18091;DHT22;9172;49.948;9.208;2023-02-26T14:32:12;2.70;99.90
18091;DHT22;9172;49.948;9.208;2023-02-26T14:34:49;2.80;99.90
18091;DHT22;9172;49.948;9.208;2023-02-26T14:37:21;3.00;99.90
18091;DHT22;9172;49.948;9.208;2023-02-26T14:39:54;3.10;99.90
18091;DHT22;9172;49.948;9.208;2023-02-26T14:42:28;3.10;99.90
18091;DHT22;9172;49.948;9.208;2023-02-26T14:45:01;3.10;99.90
18091;DHT22;9172;49.948;9.208;2023-02-26T14:47:30;3.20;99.90
18091;DHT22;9172;49.948;9.208;2023-02-26T14:49:59;3.20;99.90
18091;DHT22;9172;49.948;9.208;2023-02-26T14:52:44;3.20;99.90
18091;DHT22;9172;49.948;9.208;2023-02-26T14:58:48;3.10;99.90
18091;DHT22;9172;49.948;9.208;2023-02-26T15:01:25;2.90;99.90
18091;DHT22;9172;49.948;9.208;2023-02-26T15:04:32;2.90;99.90
18091;DHT22;9172;49.948;9.208;2023-02-26T15:07:14;3.00;99.90
18091;DHT22;9172;49.948;9.208;2023-02-26T15:12:35;3.10;99.90
18091;DHT22;9172;49.948;9.208;2023-02-26T15:15:23;3.10;99.90
18091;DHT22;9172;49.948;9.208;2023-02-26T15:18:00;3.10;99.90
18091;DHT22;9172;49.948;9.208;2023-02-26T15:20:33;3.10;99.90
18091;DHT22;9172;49.948;9.208;2023-02-26T15:23:11;3.10;99.90
18091;DHT22;9172;49.948;9.208;2023-02-26T15:25:43;3.00;99.90
18091;DHT22;9172;49.948;9.208;2023-02-26T15:28:22;3.00;99.90
18091;DHT22;9172;49.948;9.208;2023-02-26T15:30:45;2.90;99.90
18091;DHT22;9172;49.948;9.208;2023-02-26T15:33:17;2.90;99.90
18091;DHT22;9172;49.948;9.208;2023-02-26T15:35:48;2.80;99.90
18091;DHT22;9172;49.948;9.208;2023-02-26T15:38:18;2.80;99.90
18091;DHT22;9172;49.948;9.208;2023-02-26T15:40:49;2.70;99.90
18091;DHT22;9172;49.948;9.208;2023-02-26T15:43:20;2.60;99.90
18091;DHT22;9172;49.948;9.208;2023-02-26T15:45:52;2.70;99.90
18091;DHT22;9172;49.948;9.208;2023-02-26T15:48:25;2.70;99.90
18091;DHT22;9172;49.948;9.208;2023-02-26T15:50:56;2.70;99.90
18091;DHT22;9172;49.948;9.208;2023-02-26T15:53:29;2.70;99.90
18091;DHT22;9172;49.948;9.208;2023-02-26T15:56:01;2.70;99.90
18091;DHT22;9172;49.948;9.208;2023-02-26T15:58:35;2.70;99.90
18091;DHT22;9172;49.948;9.208;2023-02-26T16:01:05;2.70;99.90
18091;DHT22;9172;49.948;9.208;2023-02-26T16:03:35;2.70;99.90
18091;DHT22;9172;49.948;9.208;2023-02-26T16:06:15;2.60;99.90
18091;DHT22;9172;49.948;9.208;2023-02-26T16:08:40;2.60;99.90
18091;DHT22;9172;49.948;9.208;2023-02-26T16:11:10;2.70;99.90
18091;DHT22;9172;49.948;9.208;2023-02-26T16:13:41;2.70;99.90
18091;DHT22;9172;49.948;9.208;2023-02-26T16:16:14;2.60;99.90
18091;DHT22;9172;49.948;9.208;2023-02-26T16:18:45;2.60;99.90
18091;DHT22;9172;49.948;9.208;2023-02-26T16:21:18;2.60;99.90
18091;DHT22;9172;49.948;9.208;2023-02-26T16:23:49;2.60;99.90
18091;DHT22;9172;49.948;9.208;2023-02-26T16:26:23;2.60;99.90
18091;DHT22;9172;49.948;9.208;2023-02-26T16:28:56;2.50;99.90
18091;DHT22;9172;49.948;9.208;2023-02-26T16:31:27;2.50;99.90
18091;DHT22;9172;49.948;9.208;2023-02-26T16:33:59;2.50;99.90
18091;DHT22;9172;49.948;9.208;2023-02-26T16:36:30;2.50;99.90
18091;DHT22;9172;49.948;9.208;2023-02-26T16:39:12;2.50;99.90
18091;DHT22;9172;49.948;9.208;2023-02-26T16:41:45;2.40;99.90
18091;DHT22;9172;49.948;9.208;2023-02-26T16:44:36;2.40;99.90
18091;DHT22;9172;49.948;9.208;2023-02-26T16:47:06;2.40;99.90
18091;DHT22;9172;49.948;9.208;2023-02-26T16:49:38;2.40;99.90
18091;DHT22;9172;49.948;9.208;2023-02-26T16:52:12;2.40;99.90
18091;DHT22;9172;49.948;9.208;2023-02-26T16:57:27;2.40;99.90
18091;DHT22;9172;49.948;9.208;2023-02-26T16:59:58;2.30;99.90
18091;DHT22;9172;49.948;9.208;2023-02-26T17:02:30;2.20;99.90